Time;durP1;ratioP1;P1;durP2;ratioP2;P2;SDS_P1;SDS_P2;PMS_P1;PMS_P2;Temp;Humidity;BMP_temperature;BMP_pressure;BME280_temperature;BME280_humidity;BME280_pressure;Samples;Min_cycle;Max_cycle;Signal;HPM_P1;HPM_P2
2022/03/28 00:00:28;;;;;;;16.80;11.70;;;;;;;;;;5113336;28;20724;-77
2022/03/28 00:02:56;;;;;;;17.43;12.10;;;;;;;;;;5106560;28;20235;-77
2022/03/28 00:05:26;;;;;;;15.70;11.37;;;;;;;;;;5114527;28;20584;-77
2022/03/28 00:07:54;;;;;;;21.17;11.43;;;;;;;;;;5104007;28;20724;-77
2022/03/28 00:10:22;;;;;;;17.83;11.20;;;;;;;;;;5112163;28;20297;-77
2022/03/28 00:12:50;;;;;;;12.93;9.30;;;;;;;;;;5110385;28;20228;-77
2022/03/28 00:15:18;;;;;;;13.63;8.83;;;;;;;;;;5111589;28;20655;-77
2022/03/28 00:17:47;;;;;;;13.43;9.40;;;;;;;;;;5103516;28;20651;-77
2022/03/28 00:20:15;;;;;;;13.00;8.47;;;;;;;;;;5114808;28;20201;-77
2022/03/28 00:22:45;;;;;;;13.47;8.80;;;;;;;;;;5114233;28;20201;-77
2022/03/28 00:25:13;;;;;;;11.13;8.30;;;;;;;;;;5108453;28;20198;-76
2022/03/28 00:27:41;;;;;;;11.23;8.57;;;;;;;;;;5116304;28;20192;-76
2022/03/28 00:30:10;;;;;;;12.27;8.40;;;;;;;;;;5107924;28;20523;-77
2022/03/28 00:32:38;;;;;;;12.47;7.77;;;;;;;;;;5112679;28;20226;-77
2022/03/28 00:35:07;;;;;;;12.27;8.27;;;;;;;;;;5115879;28;20731;-77
2022/03/28 00:37:37;;;;;;;12.73;8.47;;;;;;;;;;5102400;28;20636;-77
2022/03/28 00:40:08;;;;;;;11.60;7.73;;;;;;;;;;5118871;28;20226;-76
2022/03/28 00:42:37;;;;;;;12.43;8.27;;;;;;;;;;5114336;28;20281;-77
2022/03/28 00:45:05;;;;;;;13.00;8.43;;;;;;;;;;5113643;28;20703;-76
2022/03/28 00:47:33;;;;;;;13.37;8.67;;;;;;;;;;5108971;28;20640;-77
2022/03/28 00:50:01;;;;;;;11.57;8.50;;;;;;;;;;5110435;28;20279;-76
2022/03/28 00:52:29;;;;;;;15.57;9.07;;;;;;;;;;5104015;28;20201;-77
2022/03/28 00:54:58;;;;;;;11.33;8.10;;;;;;;;;;5104723;28;20672;-76
2022/03/28 00:57:28;;;;;;;12.73;9.00;;;;;;;;;;5102184;28;20194;-77
2022/03/28 00:59:56;;;;;;;12.87;8.97;;;;;;;;;;5109181;28;20260;-77
2022/03/28 01:02:24;;;;;;;12.13;8.93;;;;;;;;;;5111061;28;20264;-77
2022/03/28 01:04:53;;;;;;;11.33;8.40;;;;;;;;;;5111744;28;20198;-77
2022/03/28 01:07:21;;;;;;;10.73;8.17;;;;;;;;;;5102428;28;20707;-77
2022/03/28 01:09:49;;;;;;;13.30;8.83;;;;;;;;;;5107895;28;20201;-76
2022/03/28 01:12:17;;;;;;;13.30;9.63;;;;;;;;;;5113358;28;20232;-77
2022/03/28 01:14:48;;;;;;;12.63;9.07;;;;;;;;;;5108094;28;20773;-76
2022/03/28 01:20:01;;;;;;;13.13;9.50;;;;;;;;;;5079483;28;20247;-76
2022/03/28 01:22:30;;;;;;;15.87;9.93;;;;;;;;;;5103163;28;20240;-76
2022/03/28 01:25:00;;;;;;;13.00;9.60;;;;;;;;;;5102472;28;20676;-76
2022/03/28 01:27:29;;;;;;;14.43;10.93;;;;;;;;;;5105037;28;20205;-76
2022/03/28 01:29:57;;;;;;;16.33;9.60;;;;;;;;;;5107241;28;20225;-76
2022/03/28 01:32:25;;;;;;;11.90;8.87;;;;;;;;;;5103978;28;20612;-76
2022/03/28 01:34:53;;;;;;;12.77;8.33;;;;;;;;;;5113430;28;20255;-76
2022/03/28 01:37:21;;;;;;;11.87;9.03;;;;;;;;;;5109784;28;20248;-78
2022/03/28 01:39:50;;;;;;;9.70;8.10;;;;;;;;;;5104922;28;20634;-78
2022/03/28 01:42:18;;;;;;;11.67;8.13;;;;;;;;;;5113027;28;20284;-76
2022/03/28 01:44:49;;;;;;;9.63;8.23;;;;;;;;;;5110115;28;20233;-77
2022/03/28 01:47:17;;;;;;;12.20;7.70;;;;;;;;;;5111387;28;20229;-78
2022/03/28 01:49:45;;;;;;;13.57;8.83;;;;;;;;;;5107070;28;20233;-76
2022/03/28 01:52:13;;;;;;;17.13;8.10;;;;;;;;;;5111350;28;20289;-78
2022/03/28 01:54:41;;;;;;;10.17;7.93;;;;;;;;;;5107873;28;20628;-78
2022/03/28 01:57:11;;;;;;;10.50;8.13;;;;;;;;;;5101734;28;20281;-76
2022/03/28 01:59:39;;;;;;;11.07;7.40;;;;;;;;;;5115067;28;20312;-77
2022/03/28 02:02:07;;;;;;;12.90;8.87;;;;;;;;;;5107977;28;20307;-78
2022/03/28 02:04:35;;;;;;;14.40;8.40;;;;;;;;;;5107064;28;20276;-78
2022/03/28 02:07:03;;;;;;;10.37;8.00;;;;;;;;;;5106652;28;20308;-76
2022/03/28 02:09:31;;;;;;;14.43;8.70;;;;;;;;;;5111753;28;20290;-78
2022/03/28 02:11:59;;;;;;;12.23;8.57;;;;;;;;;;5104446;28;20280;-77
2022/03/28 02:14:29;;;;;;;10.17;8.27;;;;;;;;;;5112550;28;20264;-77
2022/03/28 02:16:57;;;;;;;12.73;9.10;;;;;;;;;;5102044;28;20260;-77
2022/03/28 02:19:25;;;;;;;10.93;8.37;;;;;;;;;;5107566;28;20680;-78
2022/03/28 02:21:53;;;;;;;12.57;9.27;;;;;;;;;;5104260;28;20545;-78
2022/03/28 02:24:21;;;;;;;12.13;8.53;;;;;;;;;;5112345;28;20644;-77
2022/03/28 02:26:49;;;;;;;11.90;8.40;;;;;;;;;;5103705;28;20312;-77
2022/03/28 02:29:17;;;;;;;14.57;8.77;;;;;;;;;;5101231;28;20276;-77
2022/03/28 02:31:46;;;;;;;10.30;8.53;;;;;;;;;;5109260;28;20228;-77
2022/03/28 02:34:15;;;;;;;12.83;8.60;;;;;;;;;;5112176;28;20284;-77
2022/03/28 02:36:43;;;;;;;19.03;9.33;;;;;;;;;;5111359;28;20265;-77
2022/03/28 02:39:11;;;;;;;12.10;9.23;;;;;;;;;;5111703;28;20649;-78
2022/03/28 02:41:40;;;;;;;11.70;8.80;;;;;;;;;;5112539;28;20632;-78
2022/03/28 02:44:08;;;;;;;14.83;9.17;;;;;;;;;;5111878;28;20692;-78
2022/03/28 02:46:36;;;;;;;11.63;8.40;;;;;;;;;;5111571;28;20212;-77
2022/03/28 02:49:05;;;;;;;15.00;9.27;;;;;;;;;;5109609;28;20596;-78
2022/03/28 02:51:33;;;;;;;10.70;8.53;;;;;;;;;;5103742;28;20269;-78
2022/03/28 02:54:01;;;;;;;12.93;8.57;;;;;;;;;;5109253;28;20239;-78
2022/03/28 02:56:29;;;;;;;12.30;8.77;;;;;;;;;;5108845;28;20305;-78
2022/03/28 02:58:57;;;;;;;12.83;9.13;;;;;;;;;;5111868;28;20312;-78
2022/03/28 03:01:25;;;;;;;13.83;8.43;;;;;;;;;;5112274;28;20221;-78
2022/03/28 03:03:54;;;;;;;14.27;9.00;;;;;;;;;;5103534;28;20200;-77
2022/03/28 03:06:23;;;;;;;15.27;9.93;;;;;;;;;;5100218;28;20305;-77
2022/03/28 03:08:51;;;;;;;13.67;10.20;;;;;;;;;;5111127;28;20257;-77
2022/03/28 03:11:19;;;;;;;11.43;8.97;;;;;;;;;;5100766;28;20633;-78
2022/03/28 03:13:48;;;;;;;13.53;9.10;;;;;;;;;;5106994;28;20728;-77
2022/03/28 03:16:16;;;;;;;13.03;9.37;;;;;;;;;;5103621;28;20698;-77
2022/03/28 03:18:44;;;;;;;14.10;8.83;;;;;;;;;;5109130;28;20546;-78
2022/03/28 03:21:12;;;;;;;11.90;9.20;;;;;;;;;;5110051;28;20714;-77
2022/03/28 03:23:42;;;;;;;14.67;9.40;;;;;;;;;;5105759;28;20236;-77
2022/03/28 03:26:10;;;;;;;14.53;8.53;;;;;;;;;;5103269;28;20252;-76
2022/03/28 03:28:38;;;;;;;11.77;8.80;;;;;;;;;;5112799;28;20230;-77
2022/03/28 03:31:06;;;;;;;12.57;9.27;;;;;;;;;;5101016;28;20248;-77
2022/03/28 03:33:34;;;;;;;13.33;9.13;;;;;;;;;;5107197;28;20251;-77
2022/03/28 03:36:02;;;;;;;12.77;8.83;;;;;;;;;;5108792;28;20312;-77
2022/03/28 03:38:30;;;;;;;15.77;9.90;;;;;;;;;;5116861;28;20284;-77
2022/03/28 03:40:59;;;;;;;10.17;8.03;;;;;;;;;;5110779;28;20628;-76
2022/03/28 03:43:28;;;;;;;12.43;8.80;;;;;;;;;;5111124;28;20232;-77
2022/03/28 03:45:56;;;;;;;12.60;9.27;;;;;;;;;;5102402;28;20296;-77
2022/03/28 03:48:24;;;;;;;14.40;9.10;;;;;;;;;;5114883;28;20201;-77
2022/03/28 03:50:53;;;;;;;11.97;9.30;;;;;;;;;;5108778;28;20221;-78
2022/03/28 03:53:21;;;;;;;13.27;8.53;;;;;;;;;;5112279;27;20331;-77
2022/03/28 03:55:49;;;;;;;12.80;10.13;;;;;;;;;;5116575;28;20216;-77
2022/03/28 03:58:19;;;;;;;11.17;8.97;;;;;;;;;;5119473;28;20284;-78
2022/03/28 04:00:47;;;;;;;11.93;8.30;;;;;;;;;;5114696;28;20229;-78
2022/03/28 04:03:15;;;;;;;13.93;9.27;;;;;;;;;;5117844;28;20201;-78
2022/03/28 04:05:43;;;;;;;13.10;8.57;;;;;;;;;;5114089;28;20708;-77
2022/03/28 04:08:11;;;;;;;11.53;8.70;;;;;;;;;;5116499;28;20300;-77
2022/03/28 04:10:39;;;;;;;12.97;9.00;;;;;;;;;;5116870;28;20233;-78
2022/03/28 04:13:13;;;;;;;11.90;9.10;;;;;;;;;;5114760;28;20200;-78
2022/03/28 04:15:43;;;;;;;12.97;9.60;;;;;;;;;;5116571;28;20271;-78
2022/03/28 04:18:11;;;;;;;15.53;10.13;;;;;;;;;;5112617;28;20225;-78
2022/03/28 04:20:39;;;;;;;14.40;9.60;;;;;;;;;;5117083;28;20225;-77
2022/03/28 04:23:07;;;;;;;16.50;10.77;;;;;;;;;;5116486;28;20280;-77
2022/03/28 04:25:35;;;;;;;14.43;9.40;;;;;;;;;;5112246;28;20308;-78
2022/03/28 04:28:06;;;;;;;14.13;9.77;;;;;;;;;;5110470;28;20586;-78
2022/03/28 04:30:34;;;;;;;16.83;10.00;;;;;;;;;;5112710;28;20247;-78
2022/03/28 04:33:04;;;;;;;15.17;8.83;;;;;;;;;;5115786;28;20205;-77
2022/03/28 04:35:32;;;;;;;17.07;9.30;;;;;;;;;;5109702;28;20246;-78
2022/03/28 04:38:02;;;;;;;12.37;9.33;;;;;;;;;;5114045;28;20281;-78
2022/03/28 04:40:30;;;;;;;14.43;9.10;;;;;;;;;;5110401;28;20228;-78
2022/03/28 04:42:58;;;;;;;19.70;9.30;;;;;;;;;;5115334;28;20242;-78
2022/03/28 04:45:27;;;;;;;15.33;9.63;;;;;;;;;;5115727;28;20244;-78
2022/03/28 04:47:55;;;;;;;15.07;9.33;;;;;;;;;;5113983;28;20284;-78
2022/03/28 04:50:24;;;;;;;15.03;10.00;;;;;;;;;;5114193;28;20687;-78
2022/03/28 04:52:52;;;;;;;15.40;9.27;;;;;;;;;;5112852;28;20281;-78
2022/03/28 04:55:20;;;;;;;14.17;9.37;;;;;;;;;;5116258;28;20255;-78
2022/03/28 04:57:48;;;;;;;12.60;9.10;;;;;;;;;;5112934;28;20252;-78
2022/03/28 05:00:17;;;;;;;13.43;9.33;;;;;;;;;;5114473;28;20703;-78
2022/03/28 05:02:45;;;;;;;18.33;9.73;;;;;;;;;;5115348;28;20236;-78
2022/03/28 05:05:13;;;;;;;15.03;9.90;;;;;;;;;;5114499;28;20201;-78
2022/03/28 05:07:42;;;;;;;16.97;10.07;;;;;;;;;;5115937;28;20193;-78
2022/03/28 05:10:10;;;;;;;19.77;9.53;;;;;;;;;;5114875;28;20283;-78
2022/03/28 05:12:38;;;;;;;15.50;10.90;;;;;;;;;;5117494;28;20265;-78
2022/03/28 05:15:07;;;;;;;15.97;11.57;;;;;;;;;;5115636;28;20236;-78
2022/03/28 05:17:35;;;;;;;14.23;11.70;;;;;;;;;;5114432;28;20304;-77
2022/03/28 05:20:05;;;;;;;16.17;11.17;;;;;;;;;;5116174;28;20229;-77
2022/03/28 05:22:33;;;;;;;16.17;10.70;;;;;;;;;;5116973;28;20204;-78
2022/03/28 05:25:02;;;;;;;21.20;11.90;;;;;;;;;;5116661;28;20205;-77
2022/03/28 05:27:30;;;;;;;15.43;10.73;;;;;;;;;;5117608;28;20292;-78
2022/03/28 05:29:59;;;;;;;18.33;10.57;;;;;;;;;;5116631;28;20220;-77
2022/03/28 05:32:27;;;;;;;17.90;11.73;;;;;;;;;;5117189;28;20207;-77
2022/03/28 05:34:55;;;;;;;17.37;10.57;;;;;;;;;;5116030;28;20268;-78
2022/03/28 05:37:23;;;;;;;19.40;11.93;;;;;;;;;;5117297;28;20730;-78
2022/03/28 05:39:51;;;;;;;14.63;10.83;;;;;;;;;;5104406;28;20280;-78
2022/03/28 05:42:21;;;;;;;19.30;11.13;;;;;;;;;;5109681;28;20244;-78
2022/03/28 05:44:49;;;;;;;19.90;10.70;;;;;;;;;;5103701;28;20748;-78
2022/03/28 05:47:17;;;;;;;22.80;12.17;;;;;;;;;;5104703;28;20255;-78
2022/03/28 05:49:45;;;;;;;26.60;15.60;;;;;;;;;;5112712;28;20208;-78
2022/03/28 05:52:13;;;;;;;19.93;12.00;;;;;;;;;;5102234;28;20233;-77
2022/03/28 05:54:41;;;;;;;19.77;10.80;;;;;;;;;;5101326;28;20676;-76
2022/03/28 05:57:09;;;;;;;17.37;12.40;;;;;;;;;;5110984;28;20263;-75
2022/03/28 05:59:38;;;;;;;16.97;10.67;;;;;;;;;;5100947;28;20284;-76
2022/03/28 06:02:07;;;;;;;16.70;10.67;;;;;;;;;;5110725;28;20235;-75
2022/03/28 06:04:35;;;;;;;18.73;9.87;;;;;;;;;;5116534;28;20197;-75
2022/03/28 06:07:03;;;;;;;18.13;10.53;;;;;;;;;;5112169;28;20259;-75
2022/03/28 06:09:31;;;;;;;18.13;10.30;;;;;;;;;;5103853;28;20228;-76
2022/03/28 06:11:59;;;;;;;16.40;10.20;;;;;;;;;;5101159;28;20208;-77
2022/03/28 06:14:27;;;;;;;15.00;9.97;;;;;;;;;;5108840;28;20226;-75
2022/03/28 06:16:57;;;;;;;16.00;10.53;;;;;;;;;;5108422;28;20316;-77
2022/03/28 06:19:25;;;;;;;13.83;9.93;;;;;;;;;;5109202;28;20614;-76
2022/03/28 06:21:53;;;;;;;17.97;9.57;;;;;;;;;;5110773;28;20225;-76
2022/03/28 06:24:21;;;;;;;14.83;9.60;;;;;;;;;;5110123;28;20284;-77
2022/03/28 06:26:49;;;;;;;18.40;10.20;;;;;;;;;;5100972;28;20292;-77
2022/03/28 06:29:21;;;;;;;117.50;65.67;;;;;;;;;;5102255;28;20751;-75
2022/03/28 06:31:49;;;;;;;26.63;14.53;;;;;;;;;;5112582;28;20235;-74
2022/03/28 06:34:19;;;;;;;28.17;12.57;;;;;;;;;;5114678;28;20254;-74
2022/03/28 06:36:47;;;;;;;20.97;10.80;;;;;;;;;;5113191;28;20255;-76
2022/03/28 06:39:15;;;;;;;32.30;11.90;;;;;;;;;;5114585;28;20276;-77
2022/03/28 06:41:43;;;;;;;22.60;11.73;;;;;;;;;;5112649;28;20292;-77
2022/03/28 06:44:11;;;;;;;23.27;11.40;;;;;;;;;;5113000;28;20276;-77
2022/03/28 06:46:40;;;;;;;16.73;10.80;;;;;;;;;;5112439;28;20217;-77
2022/03/28 06:49:08;;;;;;;20.67;10.50;;;;;;;;;;5101920;28;20206;-77
2022/03/28 06:51:38;;;;;;;16.43;11.03;;;;;;;;;;5109066;28;20220;-77
2022/03/28 06:54:07;;;;;;;18.57;11.60;;;;;;;;;;5113750;28;20201;-77
2022/03/28 06:56:35;;;;;;;19.60;11.57;;;;;;;;;;5112777;28;20957;-78
2022/03/28 06:59:03;;;;;;;17.33;11.77;;;;;;;;;;5116167;28;20263;-77
2022/03/28 07:01:31;;;;;;;18.90;11.53;;;;;;;;;;5114095;28;20276;-78
2022/03/28 07:04:00;;;;;;;22.77;11.37;;;;;;;;;;5115186;28;20197;-78
2022/03/28 07:06:28;;;;;;;17.37;11.30;;;;;;;;;;5110427;28;20217;-78
2022/03/28 07:08:57;;;;;;;17.47;11.43;;;;;;;;;;5108071;28;20229;-79
2022/03/28 07:11:26;;;;;;;20.43;11.37;;;;;;;;;;5108078;28;20541;-78
2022/03/28 07:13:54;;;;;;;18.23;11.37;;;;;;;;;;5115126;28;20230;-79
2022/03/28 07:16:22;;;;;;;17.53;11.27;;;;;;;;;;5120267;28;20664;-79
2022/03/28 07:18:50;;;;;;;17.30;11.60;;;;;;;;;;5117714;28;20221;-79
2022/03/28 07:21:18;;;;;;;15.03;11.07;;;;;;;;;;5115577;28;20571;-79
2022/03/28 07:23:48;;;;;;;16.27;11.73;;;;;;;;;;5107242;28;20204;-80
2022/03/28 07:26:17;;;;;;;16.83;11.50;;;;;;;;;;5115827;28;20255;-79
2022/03/28 07:28:45;;;;;;;19.10;10.73;;;;;;;;;;5115554;28;20789;-81
2022/03/28 07:31:13;;;;;;;16.43;11.97;;;;;;;;;;5103559;28;20198;-79
2022/03/28 07:33:42;;;;;;;20.07;12.27;;;;;;;;;;5109181;28;20698;-79
2022/03/28 07:36:10;;;;;;;21.17;12.03;;;;;;;;;;5102959;28;20249;-78
2022/03/28 07:38:38;;;;;;;23.83;12.40;;;;;;;;;;5106574;28;20217;-79
2022/03/28 07:41:06;;;;;;;18.07;11.50;;;;;;;;;;5106722;28;20235;-79
2022/03/28 07:43:36;;;;;;;23.87;11.87;;;;;;;;;;5109429;28;20201;-79
2022/03/28 07:46:04;;;;;;;22.27;11.60;;;;;;;;;;5114812;28;20266;-78
2022/03/28 07:48:32;;;;;;;19.73;12.63;;;;;;;;;;5108258;28;20743;-79
2022/03/28 07:51:00;;;;;;;18.40;11.93;;;;;;;;;;5107282;28;20968;-78
2022/03/28 07:53:28;;;;;;;20.97;12.83;;;;;;;;;;5116366;28;20228;-79
2022/03/28 07:55:56;;;;;;;20.53;13.33;;;;;;;;;;5117832;28;20224;-78
2022/03/28 07:58:24;;;;;;;18.93;11.97;;;;;;;;;;5116200;28;20281;-75
2022/03/28 08:00:54;;;;;;;23.80;12.73;;;;;;;;;;5110008;28;20236;-79
2022/03/28 08:03:22;;;;;;;16.93;11.97;;;;;;;;;;5114566;28;20205;-80
2022/03/28 08:05:53;;;;;;;16.97;12.37;;;;;;;;;;5110605;28;20820;-79
2022/03/28 08:08:21;;;;;;;19.30;11.97;;;;;;;;;;5118373;28;20205;-79
2022/03/28 08:10:49;;;;;;;17.47;12.23;;;;;;;;;;5115083;28;20203;-81
2022/03/28 08:13:17;;;;;;;21.60;12.50;;;;;;;;;;5114946;28;20247;-78
2022/03/28 08:15:45;;;;;;;17.23;12.07;;;;;;;;;;5110114;28;20253;-80
2022/03/28 08:18:16;;;;;;;20.83;11.67;;;;;;;;;;5112840;28;20715;-79
2022/03/28 08:20:44;;;;;;;18.50;12.07;;;;;;;;;;5112998;28;20227;-78
2022/03/28 08:23:14;;;;;;;15.90;11.73;;;;;;;;;;5112700;28;20205;-78
2022/03/28 08:25:42;;;;;;;20.20;12.73;;;;;;;;;;5117232;28;20719;-79
2022/03/28 08:28:10;;;;;;;18.60;11.73;;;;;;;;;;5101082;28;20606;-76
2022/03/28 08:30:38;;;;;;;19.60;11.83;;;;;;;;;;5115672;28;20197;-78
2022/03/28 08:33:06;;;;;;;21.17;12.03;;;;;;;;;;5111749;28;20284;-76
2022/03/28 08:35:36;;;;;;;17.60;11.90;;;;;;;;;;5115056;28;20221;-77
2022/03/28 08:38:04;;;;;;;15.60;11.83;;;;;;;;;;5104606;28;20237;-78
2022/03/28 08:40:32;;;;;;;16.40;11.30;;;;;;;;;;5110747;28;20271;-79
2022/03/28 08:43:03;;;;;;;15.33;11.23;;;;;;;;;;5103433;28;20212;-79
2022/03/28 08:45:33;;;;;;;16.13;11.53;;;;;;;;;;5104075;28;20221;-77
2022/03/28 08:48:02;;;;;;;25.87;13.20;;;;;;;;;;5108027;28;20205;-79
2022/03/28 08:50:41;;;;;;;15.63;11.30;;;;;;;;;;5104797;28;20197;-78
2022/03/28 08:53:09;;;;;;;18.67;12.33;;;;;;;;;;5109840;28;20215;-77
2022/03/28 08:55:39;;;;;;;14.73;10.67;;;;;;;;;;5106126;28;20286;-77
2022/03/28 08:58:07;;;;;;;17.07;9.60;;;;;;;;;;5110643;28;20202;-78
2022/03/28 09:00:35;;;;;;;13.63;8.80;;;;;;;;;;5114460;28;20238;-76
2022/03/28 09:03:04;;;;;;;13.30;8.00;;;;;;;;;;5106909;28;20209;-77
2022/03/28 09:05:33;;;;;;;19.10;9.00;;;;;;;;;;5107629;28;20220;-77
2022/03/28 09:08:03;;;;;;;13.50;8.10;;;;;;;;;;5107122;28;20296;-77
2022/03/28 09:10:37;;;;;;;9.80;7.60;;;;;;;;;;5106482;28;20287;-77
2022/03/28 09:13:06;;;;;;;11.40;7.70;;;;;;;;;;5112125;28;20736;-77
2022/03/28 09:15:45;;;;;;;10.40;7.90;;;;;;;;;;5107100;28;20231;-76
2022/03/28 09:18:20;;;;;;;12.80;8.27;;;;;;;;;;5112153;28;20294;-76
2022/03/28 09:20:49;;;;;;;9.63;7.43;;;;;;;;;;5117445;28;20283;-78
2022/03/28 09:23:31;;;;;;;10.63;7.50;;;;;;;;;;5117004;28;20197;-77
2022/03/28 09:26:00;;;;;;;12.37;7.97;;;;;;;;;;5110143;28;20659;-77
2022/03/28 09:28:39;;;;;;;8.43;6.60;;;;;;;;;;5108381;28;20249;-77
2022/03/28 09:31:16;;;;;;;14.90;7.43;;;;;;;;;;5101904;28;20250;-78
2022/03/28 09:33:51;;;;;;;10.73;7.03;;;;;;;;;;5112607;28;20208;-77
2022/03/28 09:36:19;;;;;;;9.20;7.67;;;;;;;;;;5107136;28;20249;-77
2022/03/28 09:38:56;;;;;;;13.63;7.37;;;;;;;;;;5104224;28;20307;-79
2022/03/28 09:41:24;;;;;;;9.43;6.90;;;;;;;;;;5106112;28;20225;-79
2022/03/28 09:43:54;;;;;;;10.20;6.20;;;;;;;;;;5110618;28;20231;-79
2022/03/28 09:46:25;;;;;;;11.30;6.30;;;;;;;;;;5102358;28;20259;-78
2022/03/28 09:48:53;;;;;;;10.73;6.37;;;;;;;;;;5100878;28;20256;-79
2022/03/28 09:51:21;;;;;;;12.30;7.80;;;;;;;;;;5101861;28;20662;-77
2022/03/28 09:53:49;;;;;;;9.97;7.20;;;;;;;;;;5102795;28;20280;-77
2022/03/28 09:56:19;;;;;;;10.40;6.87;;;;;;;;;;5112837;28;20256;-77
2022/03/28 09:58:49;;;;;;;13.87;6.90;;;;;;;;;;5106418;28;20268;-80
2022/03/28 10:01:18;;;;;;;13.03;7.00;;;;;;;;;;5102279;28;20206;-77
2022/03/28 10:03:47;;;;;;;9.77;6.10;;;;;;;;;;5101236;28;20198;-78
2022/03/28 10:06:16;;;;;;;11.93;6.60;;;;;;;;;;5103633;28;20221;-78
2022/03/28 10:08:45;;;;;;;13.43;6.20;;;;;;;;;;5108882;28;20633;-76
2022/03/28 10:11:14;;;;;;;9.73;6.40;;;;;;;;;;5116227;28;20243;-78
2022/03/28 10:13:43;;;;;;;8.80;5.90;;;;;;;;;;5113265;28;20260;-81
2022/03/28 10:16:12;;;;;;;12.97;6.30;;;;;;;;;;5108378;28;20216;-78
2022/03/28 10:18:40;;;;;;;7.03;5.93;;;;;;;;;;5111521;28;20234;-81
2022/03/28 10:21:09;;;;;;;8.10;5.90;;;;;;;;;;5107337;28;20225;-80
2022/03/28 10:23:41;;;;;;;12.43;6.47;;;;;;;;;;5113976;28;20657;-80
2022/03/28 10:26:10;;;;;;;11.30;6.03;;;;;;;;;;5116157;28;20220;-78
2022/03/28 10:28:38;;;;;;;11.40;6.27;;;;;;;;;;5111675;28;20585;-79
2022/03/28 10:31:16;;;;;;;10.87;5.73;;;;;;;;;;5108546;28;20295;-80
2022/03/28 10:34:04;;;;;;;9.40;5.87;;;;;;;;;;5111173;28;20287;-78
2022/03/28 10:36:33;;;;;;;13.57;5.57;;;;;;;;;;5111088;28;20221;-79
2022/03/28 10:39:18;;;;;;;9.03;6.10;;;;;;;;;;5114181;28;20232;-78
2022/03/28 10:41:46;;;;;;;9.73;6.10;;;;;;;;;;5103396;28;20243;-81
2022/03/28 10:44:16;;;;;;;12.77;5.60;;;;;;;;;;5118813;28;20614;-79
2022/03/28 10:46:48;;;;;;;8.63;5.87;;;;;;;;;;5119671;28;20306;-80
2022/03/28 10:49:16;;;;;;;8.60;5.43;;;;;;;;;;5118621;28;20227;-79
2022/03/28 10:51:48;;;;;;;9.67;5.83;;;;;;;;;;5115483;28;20229;-80
2022/03/28 10:54:16;;;;;;;9.17;6.20;;;;;;;;;;5118650;28;20280;-82
2022/03/28 10:56:45;;;;;;;8.43;6.20;;;;;;;;;;5116979;28;20252;-82
2022/03/28 10:59:15;;;;;;;8.23;5.63;;;;;;;;;;5117785;28;20232;-81
2022/03/28 11:01:44;;;;;;;7.63;5.63;;;;;;;;;;5114244;28;20252;-82
2022/03/28 11:04:21;;;;;;;7.50;5.37;;;;;;;;;;5113560;28;20208;-82
2022/03/28 11:06:52;;;;;;;9.67;5.67;;;;;;;;;;5113308;28;20224;-80
2022/03/28 11:09:44;;;;;;;9.40;5.43;;;;;;;;;;5114592;28;20257;-80
2022/03/28 11:12:14;;;;;;;9.97;6.23;;;;;;;;;;5108870;28;20228;-78
2022/03/28 11:14:43;;;;;;;11.00;5.60;;;;;;;;;;5116870;28;20201;-80
2022/03/28 11:17:16;;;;;;;10.40;5.90;;;;;;;;;;5108865;28;20700;-81
2022/03/28 11:19:57;;;;;;;8.23;5.43;;;;;;;;;;5108806;28;20256;-80
2022/03/28 11:22:42;;;;;;;10.03;4.90;;;;;;;;;;5104286;28;20197;-79
2022/03/28 11:25:31;;;;;;;11.33;5.80;;;;;;;;;;5114843;28;20197;-79
2022/03/28 11:28:03;;;;;;;11.90;5.80;;;;;;;;;;5105058;28;20235;-81
2022/03/28 11:30:32;;;;;;;9.80;5.63;;;;;;;;;;5109158;28;20356;-83
2022/03/28 11:33:07;;;;;;;11.57;5.90;;;;;;;;;;5116294;28;20213;-80
2022/03/28 11:35:37;;;;;;;9.20;5.60;;;;;;;;;;5114218;28;20653;-81
2022/03/28 11:38:06;;;;;;;8.63;5.57;;;;;;;;;;5111526;28;20209;-81
2022/03/28 11:40:37;;;;;;;6.77;4.87;;;;;;;;;;5110721;28;20307;-81
2022/03/28 11:43:06;;;;;;;7.30;5.90;;;;;;;;;;5108057;28;20228;-81
2022/03/28 11:45:34;;;;;;;7.33;4.87;;;;;;;;;;5110553;28;20217;-78
2022/03/28 11:48:03;;;;;;;6.93;5.40;;;;;;;;;;5113995;28;20284;-82
2022/03/28 11:50:32;;;;;;;8.40;5.53;;;;;;;;;;5119398;28;20232;-80
2022/03/28 11:53:02;;;;;;;7.90;5.40;;;;;;;;;;5118033;28;20201;-79
2022/03/28 11:55:30;;;;;;;5.93;4.83;;;;;;;;;;5107528;28;20553;-79
2022/03/28 11:58:19;;;;;;;10.93;5.70;;;;;;;;;;5115941;28;20300;-78
2022/03/28 12:00:48;;;;;;;10.00;5.80;;;;;;;;;;5109599;28;20584;-80
2022/03/28 12:03:17;;;;;;;8.37;5.93;;;;;;;;;;5111012;28;20609;-83
2022/03/28 12:05:46;;;;;;;10.00;5.40;;;;;;;;;;5111332;28;20704;-81
2022/03/28 12:08:17;;;;;;;8.73;6.20;;;;;;;;;;5102208;28;20205;-79
2022/03/28 12:10:49;;;;;;;8.07;5.90;;;;;;;;;;5099807;28;20334;-80
2022/03/28 12:13:18;;;;;;;9.80;6.00;;;;;;;;;;5114350;28;20205;-79
2022/03/28 12:15:47;;;;;;;10.63;6.23;;;;;;;;;;5110275;28;20225;-82
2022/03/28 12:18:16;;;;;;;8.37;7.20;;;;;;;;;;5118258;28;20571;-79
2022/03/28 12:20:47;;;;;;;8.60;5.67;;;;;;;;;;5110643;28;20274;-80
2022/03/28 12:23:17;;;;;;;7.90;5.27;;;;;;;;;;5102855;28;20198;-81
2022/03/28 12:25:46;;;;;;;8.07;5.63;;;;;;;;;;5114591;28;20227;-79
2022/03/28 12:28:15;;;;;;;9.73;5.37;;;;;;;;;;5102482;28;20729;-82
2022/03/28 12:30:45;;;;;;;10.70;5.63;;;;;;;;;;5101070;28;20190;-81
2022/03/28 12:33:14;;;;;;;8.70;6.00;;;;;;;;;;5109307;28;20231;-81
2022/03/28 12:35:44;;;;;;;6.70;5.30;;;;;;;;;;5114685;28;20784;-81
2022/03/28 12:38:21;;;;;;;7.30;5.13;;;;;;;;;;5113764;28;20220;-80
2022/03/28 12:40:51;;;;;;;11.03;5.40;;;;;;;;;;5114657;28;20212;-81
2022/03/28 12:43:19;;;;;;;8.00;5.67;;;;;;;;;;5115582;28;20197;-78
2022/03/28 12:45:47;;;;;;;6.50;4.83;;;;;;;;;;5102186;28;20252;-80
2022/03/28 12:48:15;;;;;;;9.30;5.63;;;;;;;;;;5104620;28;20209;-82
2022/03/28 12:50:52;;;;;;;5.63;4.47;;;;;;;;;;5114273;28;20220;-81
2022/03/28 12:53:24;;;;;;;7.47;5.00;;;;;;;;;;5111089;28;20244;-80
2022/03/28 12:55:52;;;;;;;10.80;5.27;;;;;;;;;;5105331;28;20711;-80
2022/03/28 12:58:31;;;;;;;10.47;5.67;;;;;;;;;;5104425;28;20293;-76
2022/03/28 13:01:04;;;;;;;8.63;5.43;;;;;;;;;;5113877;28;20251;-80
2022/03/28 13:03:33;;;;;;;6.27;4.80;;;;;;;;;;5116908;28;20193;-78
2022/03/28 13:06:02;;;;;;;10.77;5.20;;;;;;;;;;5113804;28;20223;-77
2022/03/28 13:08:37;;;;;;;9.03;4.63;;;;;;;;;;5113049;28;20301;-79
2022/03/28 13:11:14;;;;;;;11.33;4.97;;;;;;;;;;5118706;28;20196;-77
2022/03/28 13:13:42;;;;;;;7.47;5.03;;;;;;;;;;5108823;28;20200;-80
2022/03/28 13:16:10;;;;;;;7.53;5.20;;;;;;;;;;5106235;28;20308;-81
2022/03/28 13:18:38;;;;;;;7.90;5.23;;;;;;;;;;5107891;28;20251;-81
2022/03/28 13:21:14;;;;;;;6.33;4.63;;;;;;;;;;5103248;28;20221;-80
2022/03/28 13:23:46;;;;;;;9.13;4.87;;;;;;;;;;5108304;28;20231;-81
2022/03/28 13:26:15;;;;;;;5.13;4.63;;;;;;;;;;5103717;28;20244;-79
2022/03/28 13:28:47;;;;;;;6.53;4.37;;;;;;;;;;5105102;28;21879;-80
2022/03/28 13:31:15;;;;;;;10.73;5.20;;;;;;;;;;5105949;28;20572;-80
2022/03/28 13:33:44;;;;;;;12.30;5.30;;;;;;;;;;5112836;28;20710;-80
2022/03/28 13:36:12;;;;;;;7.30;5.20;;;;;;;;;;5113193;28;20217;-80
2022/03/28 13:38:43;;;;;;;12.97;5.63;;;;;;;;;;5110016;28;20664;-79
2022/03/28 13:41:12;;;;;;;13.30;5.63;;;;;;;;;;5101544;28;20244;-78
2022/03/28 13:43:40;;;;;;;9.93;5.33;;;;;;;;;;5109222;28;20247;-78
2022/03/28 13:46:11;;;;;;;9.20;5.20;;;;;;;;;;5112133;28;20270;-78
2022/03/28 13:48:39;;;;;;;9.73;5.33;;;;;;;;;;5103383;28;20637;-78
2022/03/28 13:51:08;;;;;;;8.23;6.00;;;;;;;;;;5102305;28;20280;-79
2022/03/28 13:53:58;;;;;;;7.57;5.27;;;;;;;;;;5114172;28;20193;-77
2022/03/28 13:56:27;;;;;;;6.33;5.17;;;;;;;;;;5102330;28;20299;-80
2022/03/28 13:58:55;;;;;;;7.90;5.63;;;;;;;;;;5108503;28;20266;-80
2022/03/28 14:01:27;;;;;;;7.20;5.93;;;;;;;;;;5104740;28;20217;-79
2022/03/28 14:03:57;;;;;;;9.43;5.67;;;;;;;;;;5111945;28;20204;-80
2022/03/28 14:06:25;;;;;;;7.33;5.87;;;;;;;;;;5104278;28;20905;-81
2022/03/28 14:08:54;;;;;;;6.30;5.43;;;;;;;;;;5106166;28;20232;-80
2022/03/28 14:11:23;;;;;;;9.63;6.10;;;;;;;;;;5101749;28;20225;-80
2022/03/28 14:13:53;;;;;;;8.43;5.60;;;;;;;;;;5112411;28;20197;-81
2022/03/28 14:16:21;;;;;;;8.90;6.33;;;;;;;;;;5116058;28;20284;-80
2022/03/28 14:18:49;;;;;;;7.20;5.30;;;;;;;;;;5115842;28;20732;-80
2022/03/28 14:21:24;;;;;;;8.97;5.73;;;;;;;;;;5116226;28;20228;-78
2022/03/28 14:23:53;;;;;;;12.17;6.37;;;;;;;;;;5110620;28;20197;-78
2022/03/28 14:26:21;;;;;;;16.20;6.50;;;;;;;;;;5103114;28;20232;-80
2022/03/28 14:28:51;;;;;;;7.63;5.83;;;;;;;;;;5112087;28;20202;-80
2022/03/28 14:31:19;;;;;;;8.67;5.50;;;;;;;;;;5102112;28;20201;-78
2022/03/28 14:33:48;;;;;;;8.37;5.50;;;;;;;;;;5105660;28;20197;-79
2022/03/28 14:36:16;;;;;;;9.07;5.40;;;;;;;;;;5107341;28;20220;-78
2022/03/28 14:38:45;;;;;;;9.63;5.20;;;;;;;;;;5098553;28;20227;-79
2022/03/28 14:41:13;;;;;;;6.87;5.20;;;;;;;;;;5105372;28;20613;-78
2022/03/28 14:43:41;;;;;;;9.33;4.87;;;;;;;;;;5100886;28;20205;-79